createdAt,value
2022-08-27T00:03:51.463Z,19.34
2022-08-27T00:08:54.519Z,19.26
2022-08-27T00:13:56.682Z,19.24
2022-08-27T00:19:00.210Z,19.23
2022-08-27T00:24:02.406Z,19.25
2022-08-27T00:29:05.173Z,19.22
2022-08-27T00:34:08.824Z,19.22
2022-08-27T00:39:15.901Z,19.20
2022-08-27T00:44:18.034Z,19.21
2022-08-27T00:49:27.107Z,19.14
2022-08-27T00:54:30.348Z,19.16
2022-08-27T00:59:32.678Z,19.21
2022-08-27T01:04:39.180Z,19.15
2022-08-27T01:09:43.116Z,19.14
2022-08-27T01:14:46.703Z,19.17
2022-08-27T01:19:54.590Z,19.15
2022-08-27T01:25:01.587Z,19.17
2022-08-27T01:30:05.103Z,19.23
2022-08-27T01:35:09.955Z,19.16
2022-08-27T01:40:14.333Z,19.19
2022-08-27T01:45:21.365Z,19.21
2022-08-27T01:50:27.262Z,19.22
2022-08-27T01:55:32.225Z,19.20
2022-08-27T02:00:37.145Z,19.18
2022-08-27T02:05:44.779Z,19.20
2022-08-27T02:10:49.925Z,19.25
2022-08-27T02:15:51.981Z,19.28
2022-08-27T02:20:54.100Z,19.35
2022-08-27T02:25:57.580Z,19.39
2022-08-27T02:30:59.691Z,19.43
2022-08-27T02:36:02.871Z,19.40
2022-08-27T02:41:07.079Z,19.41
2022-08-27T02:46:09.360Z,19.41
2022-08-27T02:51:11.790Z,19.48
2022-08-27T02:56:21.634Z,19.42
2022-08-27T03:01:24.052Z,19.47
2022-08-27T03:06:26.412Z,19.54
2022-08-27T03:11:31.313Z,19.48
2022-08-27T03:16:34.191Z,19.56
2022-08-27T03:27:01.154Z,19.57
2022-08-27T03:32:05.973Z,19.53
2022-08-27T03:37:07.774Z,19.50
2022-08-27T03:42:10.961Z,19.49
2022-08-27T03:47:12.843Z,19.49
2022-08-27T03:52:14.773Z,19.45
2022-08-27T03:57:17.950Z,19.40
2022-08-27T04:02:19.681Z,19.42
2022-08-27T04:07:21.702Z,19.37
2022-08-27T04:12:24.952Z,19.32
2022-08-27T04:17:26.870Z,19.27
2022-08-27T04:22:28.789Z,19.27
2022-08-27T04:27:32.167Z,19.32
2022-08-27T04:32:35.918Z,19.36
2022-08-27T04:37:37.699Z,19.36
2022-08-27T04:42:40.851Z,19.39
2022-08-27T04:47:42.645Z,19.38
2022-08-27T04:52:44.442Z,19.45
2022-08-27T04:57:47.640Z,19.43
2022-08-27T05:02:49.427Z,19.38
2022-08-27T05:07:51.422Z,19.40
2022-08-27T05:12:58.083Z,19.48
2022-08-27T05:18:01.869Z,19.48
2022-08-27T05:23:03.612Z,19.48
2022-08-27T05:28:06.831Z,19.55
2022-08-27T05:33:09.061Z,19.61
2022-08-27T05:38:11.143Z,19.60
2022-08-27T05:43:15.500Z,19.53
2022-08-27T05:48:17.509Z,19.49
2022-08-27T05:53:19.400Z,19.41
2022-08-27T05:58:22.531Z,19.56
2022-08-27T06:03:24.403Z,19.56
2022-08-27T06:08:26.624Z,19.67
2022-08-27T06:13:30.996Z,19.70
2022-08-27T06:18:33.261Z,19.87
2022-08-27T06:23:36.003Z,20.02
2022-08-27T06:28:39.437Z,20.27
2022-08-27T06:33:43.456Z,20.45
2022-08-27T06:38:45.984Z,20.38
2022-08-27T06:43:53.478Z,20.38
2022-08-27T06:48:58.274Z,20.50
2022-08-27T06:54:02.583Z,20.40
2022-08-27T06:59:11.666Z,20.56
2022-08-27T07:04:18.871Z,20.57
2022-08-27T07:09:20.950Z,20.66
2022-08-27T07:14:24.271Z,20.74
2022-08-27T07:19:26.221Z,20.81
2022-08-27T07:24:28.018Z,20.70
2022-08-27T07:29:32.345Z,20.63
2022-08-27T07:34:34.301Z,20.69
2022-08-27T07:39:36.178Z,20.74
2022-08-27T07:44:39.319Z,21.07
2022-08-27T07:49:42.525Z,21.15
2022-08-27T07:54:44.364Z,21.16
2022-08-27T07:59:47.474Z,21.11
2022-08-27T08:04:49.366Z,21.13
2022-08-27T08:09:51.393Z,20.95
2022-08-27T08:14:54.462Z,20.85
2022-08-27T08:20:17.609Z,20.98
2022-08-27T08:25:18.525Z,21.16
2022-08-27T08:30:22.274Z,21.20
2022-08-27T08:35:24.535Z,21.20
2022-08-27T08:40:32.939Z,21.26
2022-08-27T08:45:41.499Z,21.36
2022-08-27T08:50:53.861Z,21.31
2022-08-27T08:56:00.417Z,21.72
2022-08-27T09:01:07.431Z,21.54
2022-08-27T09:06:18.320Z,21.50
2022-08-27T09:11:27.961Z,21.37
2022-08-27T09:16:31.661Z,21.82
2022-08-27T09:21:39.997Z,21.90
2022-08-27T09:26:43.664Z,21.84
2022-08-27T09:31:53.974Z,21.70
2022-08-27T09:37:04.184Z,21.66
2022-08-27T09:42:07.885Z,21.86
2022-08-27T09:47:13.630Z,21.89
2022-08-27T09:52:32.384Z,22.18
2022-08-27T09:57:41.570Z,23.21
2022-08-27T10:02:52.631Z,23.51
2022-08-27T10:07:59.445Z,23.27
2022-08-27T10:13:10.266Z,22.87
2022-08-27T10:18:24.962Z,22.91
2022-08-27T10:23:33.637Z,23.32
2022-08-27T10:28:45.833Z,24.15
2022-08-27T10:34:02.503Z,24.20
2022-08-27T10:39:13.356Z,24.84
2022-08-27T10:44:37.204Z,25.12
2022-08-27T10:49:47.193Z,23.96
2022-08-27T10:54:57.176Z,23.63
2022-08-27T11:00:04.832Z,23.16
2022-08-27T11:05:17.666Z,23.31
2022-08-27T11:10:23.799Z,23.26
2022-08-27T11:15:29.695Z,23.42
2022-08-27T11:20:40.949Z,23.25
2022-08-27T11:25:50.457Z,23.06
2022-08-27T11:30:59.706Z,22.80
2022-08-27T11:36:26.256Z,22.88
2022-08-27T11:41:47.373Z,23.63
2022-08-27T11:46:53.541Z,24.20
2022-08-27T11:52:03.530Z,23.75
2022-08-27T11:57:15.063Z,23.76
2022-08-27T12:02:22.902Z,23.76
2022-08-27T12:07:33.547Z,23.77
2022-08-27T12:12:44.893Z,23.86
2022-08-27T12:17:56.170Z,25.17
2022-08-27T12:23:16.971Z,24.99
2022-08-27T12:28:26.736Z,25.80
2022-08-27T12:33:35.212Z,25.26
2022-08-27T12:38:46.294Z,25.69
2022-08-27T12:44:03.145Z,25.33
2022-08-27T12:49:34.255Z,24.64
2022-08-27T12:54:40.725Z,25.37
2022-08-27T12:59:56.312Z,26.11
2022-08-27T13:05:02.976Z,26.88
2022-08-27T13:10:13.477Z,25.90
2022-08-27T13:15:17.309Z,26.28
2022-08-27T13:20:22.679Z,27.30
2022-08-27T13:25:28.820Z,26.29
2022-08-27T13:30:35.531Z,26.07
2022-08-27T13:35:40.836Z,25.64
2022-08-27T13:40:56.923Z,25.16
2022-08-27T13:46:01.381Z,24.95
2022-08-27T13:51:03.567Z,24.46
2022-08-27T13:56:07.494Z,24.52
2022-08-27T14:01:13.750Z,24.50
2022-08-27T14:06:31.406Z,24.39
2022-08-27T14:11:39.305Z,24.24
2022-08-27T14:16:41.995Z,23.85
2022-08-27T14:21:44.262Z,23.78
2022-08-27T14:26:50.493Z,23.80
2022-08-27T14:31:52.691Z,23.64
2022-08-27T14:36:55.147Z,23.45
2022-08-27T14:41:58.463Z,23.26
2022-08-27T14:47:00.870Z,23.20
2022-08-27T14:52:04.921Z,23.26
2022-08-27T14:57:09.239Z,23.31
2022-08-27T15:02:12.909Z,23.35
2022-08-27T15:07:15.014Z,23.35
2022-08-27T15:12:26.479Z,23.28
2022-08-27T15:17:35.195Z,23.12
2022-08-27T15:22:44.038Z,22.91
2022-08-27T15:27:47.578Z,22.55
2022-08-27T15:32:49.654Z,22.58
2022-08-27T15:37:51.641Z,22.42
2022-08-27T15:42:58.027Z,22.39
2022-08-27T15:48:00.730Z,22.51
2022-08-27T15:53:05.710Z,22.32
2022-08-27T15:58:10.099Z,22.23
2022-08-27T16:03:14.634Z,22.04
2022-08-27T16:08:16.804Z,21.86
2022-08-27T16:13:19.825Z,21.77
2022-08-27T16:18:26.620Z,21.63
2022-08-27T16:23:30.762Z,21.52
2022-08-27T16:28:34.040Z,21.51
2022-08-27T16:33:36.113Z,21.26
2022-08-27T16:38:41.785Z,20.89
2022-08-27T16:43:45.111Z,20.73
2022-08-27T16:48:46.902Z,20.65
2022-08-27T16:53:50.518Z,20.52
2022-08-27T16:58:53.763Z,20.57
2022-08-27T17:04:11.275Z,20.43
2022-08-27T17:09:17.411Z,20.35
2022-08-27T17:14:20.657Z,20.31
2022-08-27T17:19:22.384Z,20.33
2022-08-27T17:24:24.410Z,20.32
2022-08-27T17:29:27.589Z,20.29
2022-08-27T17:34:31.475Z,20.17
2022-08-27T17:39:33.467Z,20.17
2022-08-27T17:44:37.803Z,20.06
2022-08-27T17:49:40.115Z,20.01
2022-08-27T17:54:45.318Z,19.97
2022-08-27T17:59:50.018Z,19.90
2022-08-27T18:04:52.290Z,19.86
2022-08-27T18:09:54.369Z,19.73
2022-08-27T18:15:04.456Z,19.69
2022-08-27T18:20:08.228Z,19.59
2022-08-27T18:25:12.522Z,19.52
2022-08-27T18:30:15.636Z,19.39
2022-08-27T18:35:19.857Z,19.30
2022-08-27T18:40:24.750Z,19.30
2022-08-27T18:45:29.207Z,19.24
2022-08-27T18:50:30.958Z,19.23
2022-08-27T18:55:32.644Z,19.22
2022-08-27T19:00:36.903Z,19.21
2022-08-27T19:05:39.177Z,19.22
2022-08-27T19:10:45.363Z,19.19
2022-08-27T19:15:54.138Z,19.16
2022-08-27T19:20:56.513Z,19.17
2022-08-27T19:25:59.807Z,19.18
2022-08-27T19:31:02.898Z,19.17
2022-08-27T19:36:06.290Z,19.12
2022-08-27T19:41:08.282Z,19.18
2022-08-27T19:46:12.548Z,19.12
2022-08-27T19:51:14.567Z,19.13
2022-08-27T19:56:17.473Z,19.16
2022-08-27T20:01:20.738Z,19.20
2022-08-27T20:06:31.444Z,19.19
2022-08-27T20:11:36.905Z,19.21
2022-08-27T20:16:43.597Z,19.32
2022-08-27T20:21:52.749Z,19.32
2022-08-27T20:26:58.097Z,19.29
2022-08-27T20:32:03.379Z,19.34
2022-08-27T20:37:05.413Z,19.37
2022-08-27T20:42:07.675Z,19.39
2022-08-27T20:47:11.217Z,19.32
2022-08-27T20:52:13.661Z,19.34
2022-08-27T20:57:15.676Z,19.41
2022-08-27T21:02:24.263Z,19.48
2022-08-27T21:07:26.218Z,19.50
2022-08-27T21:12:29.433Z,19.50
2022-08-27T21:17:32.585Z,19.51
2022-08-27T21:22:34.775Z,19.50
2022-08-27T21:27:37.259Z,19.49
2022-08-27T21:32:40.487Z,19.55
2022-08-27T21:37:42.579Z,19.54
2022-08-27T21:42:44.291Z,19.52
2022-08-27T21:47:47.854Z,19.55
2022-08-27T21:52:49.975Z,19.48
2022-08-27T21:57:52.003Z,19.45
2022-08-27T22:02:55.861Z,19.40
2022-08-27T22:07:58.028Z,19.47
2022-08-27T22:13:00.132Z,19.47
2022-08-27T22:18:04.626Z,19.44
2022-08-27T22:23:08.542Z,19.44
2022-08-27T22:28:12.352Z,19.38
2022-08-27T22:33:16.453Z,19.34
2022-08-27T22:38:18.707Z,19.28
2022-08-27T22:43:20.862Z,19.31
2022-08-27T22:48:24.110Z,19.25
2022-08-27T22:53:26.037Z,19.22
2022-08-27T22:58:27.837Z,19.16
2022-08-27T23:03:31.368Z,19.15
2022-08-27T23:08:33.501Z,19.08
2022-08-27T23:13:35.833Z,19.03
2022-08-27T23:18:39.120Z,19.08
2022-08-27T23:23:41.145Z,19.04
2022-08-27T23:28:43.537Z,19.06
2022-08-27T23:33:50.825Z,19.05
2022-08-27T23:38:52.524Z,19.00
2022-08-27T23:43:54.569Z,18.98
2022-08-27T23:48:57.894Z,18.96
2022-08-27T23:53:59.960Z,19.02
2022-08-27T23:59:02.092Z,18.99
